sensor_id;sensor_type;location;lat;lon;timestamp;P1;durP1;ratioP1;P2;durP2;ratioP2
7045;SDS011;3564;53.326;10.356;2023-08-01T00:00:05;1.37;;;1.27;;
7045;SDS011;3564;53.326;10.356;2023-08-01T00:02:32;1.47;;;1.30;;
7045;SDS011;3564;53.326;10.356;2023-08-01T00:05:01;1.50;;;1.20;;
7045;SDS011;3564;53.326;10.356;2023-08-01T00:07:27;1.60;;;1.23;;
7045;SDS011;3564;53.326;10.356;2023-08-01T00:09:53;1.40;;;1.27;;
7045;SDS011;3564;53.326;10.356;2023-08-01T00:12:19;2.03;;;1.37;;
7045;SDS011;3564;53.326;10.356;2023-08-01T00:14:44;1.30;;;1.20;;
7045;SDS011;3564;53.326;10.356;2023-08-01T00:17:10;1.40;;;1.23;;
7045;SDS011;3564;53.326;10.356;2023-08-01T00:19:37;2.23;;;1.33;;
7045;SDS011;3564;53.326;10.356;2023-08-01T00:22:02;1.50;;;1.40;;
7045;SDS011;3564;53.326;10.356;2023-08-01T00:24:28;1.50;;;1.40;;
7045;SDS011;3564;53.326;10.356;2023-08-01T00:26:53;2.27;;;1.23;;
7045;SDS011;3564;53.326;10.356;2023-08-01T00:29:20;2.50;;;1.30;;
7045;SDS011;3564;53.326;10.356;2023-08-01T00:31:46;2.37;;;1.50;;
7045;SDS011;3564;53.326;10.356;2023-08-01T00:34:15;1.43;;;1.33;;
7045;SDS011;3564;53.326;10.356;2023-08-01T00:36:40;1.47;;;1.37;;
7045;SDS011;3564;53.326;10.356;2023-08-01T00:39:09;3.23;;;1.43;;
7045;SDS011;3564;53.326;10.356;2023-08-01T00:41:34;1.63;;;1.53;;
7045;SDS011;3564;53.326;10.356;2023-08-01T00:44:03;1.83;;;1.37;;
7045;SDS011;3564;53.326;10.356;2023-08-01T00:46:28;1.60;;;1.50;;
7045;SDS011;3564;53.326;10.356;2023-08-01T00:48:54;1.60;;;1.33;;
7045;SDS011;3564;53.326;10.356;2023-08-01T00:51:23;2.20;;;1.50;;
7045;SDS011;3564;53.326;10.356;2023-08-01T00:53:49;1.40;;;1.30;;
7045;SDS011;3564;53.326;10.356;2023-08-01T00:56:15;3.93;;;1.50;;
7045;SDS011;3564;53.326;10.356;2023-08-01T00:58:40;1.50;;;1.40;;
7045;SDS011;3564;53.326;10.356;2023-08-01T01:01:06;1.50;;;1.30;;
7045;SDS011;3564;53.326;10.356;2023-08-01T01:03:31;2.07;;;1.60;;
7045;SDS011;3564;53.326;10.356;2023-08-01T01:06:09;1.50;;;1.40;;
7045;SDS011;3564;53.326;10.356;2023-08-01T01:09:00;2.97;;;1.50;;
7045;SDS011;3564;53.326;10.356;2023-08-01T01:11:26;2.47;;;1.40;;
7045;SDS011;3564;53.326;10.356;2023-08-01T01:13:51;1.93;;;1.40;;
7045;SDS011;3564;53.326;10.356;2023-08-01T01:16:18;1.47;;;1.37;;
7045;SDS011;3564;53.326;10.356;2023-08-01T01:18:44;2.03;;;1.27;;
7045;SDS011;3564;53.326;10.356;2023-08-01T01:21:25;1.40;;;1.30;;
7045;SDS011;3564;53.326;10.356;2023-08-01T01:23:51;1.73;;;1.40;;
7045;SDS011;3564;53.326;10.356;2023-08-01T01:26:17;1.40;;;1.30;;
7045;SDS011;3564;53.326;10.356;2023-08-01T01:28:47;1.40;;;1.30;;
7045;SDS011;3564;53.326;10.356;2023-08-01T01:31:13;1.50;;;1.40;;
7045;SDS011;3564;53.326;10.356;2023-08-01T01:33:40;1.97;;;1.40;;
7045;SDS011;3564;53.326;10.356;2023-08-01T01:36:05;2.10;;;1.40;;
7045;SDS011;3564;53.326;10.356;2023-08-01T01:38:31;1.50;;;1.40;;
7045;SDS011;3564;53.326;10.356;2023-08-01T01:41:00;1.63;;;1.43;;
7045;SDS011;3564;53.326;10.356;2023-08-01T01:43:25;2.43;;;1.80;;
7045;SDS011;3564;53.326;10.356;2023-08-01T01:45:51;2.20;;;2.00;;
7045;SDS011;3564;53.326;10.356;2023-08-01T01:48:16;1.93;;;1.83;;
7045;SDS011;3564;53.326;10.356;2023-08-01T01:50:48;2.40;;;1.77;;
7045;SDS011;3564;53.326;10.356;2023-08-01T01:53:13;3.20;;;1.70;;
7045;SDS011;3564;53.326;10.356;2023-08-01T01:55:42;2.17;;;1.90;;
7045;SDS011;3564;53.326;10.356;2023-08-01T01:58:08;2.80;;;1.83;;
7045;SDS011;3564;53.326;10.356;2023-08-01T02:00:33;2.50;;;1.90;;
7045;SDS011;3564;53.326;10.356;2023-08-01T02:02:59;2.57;;;2.37;;
7045;SDS011;3564;53.326;10.356;2023-08-01T02:05:26;2.30;;;2.10;;
7045;SDS011;3564;53.326;10.356;2023-08-01T02:07:51;2.33;;;2.13;;
7045;SDS011;3564;53.326;10.356;2023-08-01T02:10:17;2.37;;;2.10;;
7045;SDS011;3564;53.326;10.356;2023-08-01T02:12:42;3.63;;;2.30;;
7045;SDS011;3564;53.326;10.356;2023-08-01T02:15:11;3.47;;;2.50;;
7045;SDS011;3564;53.326;10.356;2023-08-01T02:17:36;3.17;;;2.60;;
7045;SDS011;3564;53.326;10.356;2023-08-01T02:20:02;2.40;;;2.20;;
7045;SDS011;3564;53.326;10.356;2023-08-01T02:22:30;3.03;;;2.50;;
7045;SDS011;3564;53.326;10.356;2023-08-01T02:24:57;2.20;;;2.00;;
7045;SDS011;3564;53.326;10.356;2023-08-01T02:27:26;3.57;;;2.73;;
7045;SDS011;3564;53.326;10.356;2023-08-01T02:29:51;3.07;;;2.40;;
7045;SDS011;3564;53.326;10.356;2023-08-01T02:32:20;3.50;;;2.57;;
7045;SDS011;3564;53.326;10.356;2023-08-01T02:34:49;3.30;;;2.60;;
7045;SDS011;3564;53.326;10.356;2023-08-01T02:37:14;2.60;;;2.40;;
7045;SDS011;3564;53.326;10.356;2023-08-01T02:39:40;4.73;;;2.70;;
7045;SDS011;3564;53.326;10.356;2023-08-01T02:42:05;4.77;;;2.80;;
7045;SDS011;3564;53.326;10.356;2023-08-01T02:44:34;3.30;;;3.00;;
7045;SDS011;3564;53.326;10.356;2023-08-01T02:47:03;4.03;;;2.97;;
7045;SDS011;3564;53.326;10.356;2023-08-01T02:49:28;3.87;;;3.10;;
7045;SDS011;3564;53.326;10.356;2023-08-01T02:51:54;3.13;;;2.83;;
7045;SDS011;3564;53.326;10.356;2023-08-01T02:54:20;3.57;;;3.20;;
7045;SDS011;3564;53.326;10.356;2023-08-01T02:56:48;4.23;;;3.00;;
7045;SDS011;3564;53.326;10.356;2023-08-01T02:59:13;3.97;;;3.30;;
7045;SDS011;3564;53.326;10.356;2023-08-01T03:01:39;3.43;;;3.13;;
7045;SDS011;3564;53.326;10.356;2023-08-01T03:04:05;8.83;;;3.77;;
7045;SDS011;3564;53.326;10.356;2023-08-01T03:06:37;4.50;;;2.97;;
7045;SDS011;3564;53.326;10.356;2023-08-01T03:09:03;4.60;;;3.50;;
7045;SDS011;3564;53.326;10.356;2023-08-01T03:11:33;3.23;;;2.93;;
7045;SDS011;3564;53.326;10.356;2023-08-01T03:14:01;3.87;;;3.07;;
7045;SDS011;3564;53.326;10.356;2023-08-01T03:16:30;4.10;;;3.10;;
7045;SDS011;3564;53.326;10.356;2023-08-01T03:18:56;3.10;;;2.87;;
7045;SDS011;3564;53.326;10.356;2023-08-01T03:21:25;3.47;;;3.10;;
7045;SDS011;3564;53.326;10.356;2023-08-01T03:23:51;4.43;;;3.30;;
7045;SDS011;3564;53.326;10.356;2023-08-01T03:26:17;3.40;;;3.10;;
7045;SDS011;3564;53.326;10.356;2023-08-01T03:28:43;3.30;;;3.10;;
7045;SDS011;3564;53.326;10.356;2023-08-01T03:31:08;3.40;;;3.10;;
7045;SDS011;3564;53.326;10.356;2023-08-01T03:33:34;3.40;;;2.93;;
7045;SDS011;3564;53.326;10.356;2023-08-01T03:36:02;3.80;;;3.07;;
7045;SDS011;3564;53.326;10.356;2023-08-01T03:38:32;4.43;;;3.37;;
7045;SDS011;3564;53.326;10.356;2023-08-01T03:41:00;4.03;;;2.83;;
7045;SDS011;3564;53.326;10.356;2023-08-01T03:43:26;2.97;;;2.77;;
7045;SDS011;3564;53.326;10.356;2023-08-01T03:45:51;3.27;;;2.97;;
7045;SDS011;3564;53.326;10.356;2023-08-01T03:48:17;7.00;;;3.70;;
7045;SDS011;3564;53.326;10.356;2023-08-01T03:50:42;5.87;;;3.17;;
7045;SDS011;3564;53.326;10.356;2023-08-01T03:53:08;2.80;;;2.50;;
7045;SDS011;3564;53.326;10.356;2023-08-01T03:55:33;4.13;;;2.70;;
7045;SDS011;3564;53.326;10.356;2023-08-01T03:57:59;3.60;;;3.03;;
7045;SDS011;3564;53.326;10.356;2023-08-01T04:00:25;4.10;;;2.90;;
7045;SDS011;3564;53.326;10.356;2023-08-01T04:02:59;3.63;;;2.77;;
7045;SDS011;3564;53.326;10.356;2023-08-01T04:05:25;4.63;;;3.00;;
7045;SDS011;3564;53.326;10.356;2023-08-01T04:07:50;4.57;;;2.90;;
7045;SDS011;3564;53.326;10.356;2023-08-01T04:10:19;5.43;;;3.03;;
7045;SDS011;3564;53.326;10.356;2023-08-01T04:12:49;3.50;;;2.60;;
7045;SDS011;3564;53.326;10.356;2023-08-01T04:15:14;3.90;;;2.90;;
7045;SDS011;3564;53.326;10.356;2023-08-01T04:17:43;4.90;;;2.93;;
7045;SDS011;3564;53.326;10.356;2023-08-01T04:20:09;3.40;;;3.10;;
7045;SDS011;3564;53.326;10.356;2023-08-01T04:22:34;3.93;;;3.47;;
7045;SDS011;3564;53.326;10.356;2023-08-01T04:25:00;4.70;;;3.10;;
7045;SDS011;3564;53.326;10.356;2023-08-01T04:27:27;3.77;;;2.83;;
7045;SDS011;3564;53.326;10.356;2023-08-01T04:29:52;3.00;;;2.63;;
7045;SDS011;3564;53.326;10.356;2023-08-01T04:32:22;6.20;;;3.10;;
7045;SDS011;3564;53.326;10.356;2023-08-01T04:34:47;6.27;;;3.13;;
7045;SDS011;3564;53.326;10.356;2023-08-01T04:37:13;4.23;;;2.97;;
7045;SDS011;3564;53.326;10.356;2023-08-01T04:39:39;4.40;;;2.83;;
7045;SDS011;3564;53.326;10.356;2023-08-01T04:42:04;5.00;;;2.77;;
7045;SDS011;3564;53.326;10.356;2023-08-01T04:44:33;5.60;;;3.40;;
7045;SDS011;3564;53.326;10.356;2023-08-01T04:46:59;3.80;;;3.10;;
7045;SDS011;3564;53.326;10.356;2023-08-01T04:49:24;3.27;;;2.97;;
7045;SDS011;3564;53.326;10.356;2023-08-01T04:51:50;4.40;;;3.40;;
7045;SDS011;3564;53.326;10.356;2023-08-01T04:54:16;4.40;;;2.80;;
7045;SDS011;3564;53.326;10.356;2023-08-01T04:56:42;3.50;;;2.83;;
7045;SDS011;3564;53.326;10.356;2023-08-01T04:59:07;4.20;;;2.90;;
7045;SDS011;3564;53.326;10.356;2023-08-01T05:01:33;4.37;;;2.90;;
7045;SDS011;3564;53.326;10.356;2023-08-01T05:03:58;4.27;;;2.80;;
7045;SDS011;3564;53.326;10.356;2023-08-01T05:06:24;6.60;;;3.13;;
7045;SDS011;3564;53.326;10.356;2023-08-01T05:08:50;3.03;;;2.80;;
7045;SDS011;3564;53.326;10.356;2023-08-01T05:11:19;4.27;;;3.27;;
7045;SDS011;3564;53.326;10.356;2023-08-01T05:13:44;3.43;;;2.90;;
7045;SDS011;3564;53.326;10.356;2023-08-01T05:16:10;3.33;;;2.63;;
7045;SDS011;3564;53.326;10.356;2023-08-01T05:18:35;3.83;;;2.93;;
7045;SDS011;3564;53.326;10.356;2023-08-01T05:21:01;3.67;;;3.13;;
7045;SDS011;3564;53.326;10.356;2023-08-01T05:23:27;4.10;;;2.80;;
7045;SDS011;3564;53.326;10.356;2023-08-01T05:25:52;4.33;;;2.90;;
7045;SDS011;3564;53.326;10.356;2023-08-01T05:28:18;3.60;;;3.00;;
7045;SDS011;3564;53.326;10.356;2023-08-01T05:30:44;3.60;;;2.77;;
7045;SDS011;3564;53.326;10.356;2023-08-01T05:33:10;3.40;;;2.77;;
7045;SDS011;3564;53.326;10.356;2023-08-01T05:35:35;4.53;;;3.07;;
7045;SDS011;3564;53.326;10.356;2023-08-01T05:38:04;4.50;;;3.00;;
7045;SDS011;3564;53.326;10.356;2023-08-01T05:40:29;7.23;;;3.33;;
7045;SDS011;3564;53.326;10.356;2023-08-01T05:42:55;3.23;;;2.93;;
7045;SDS011;3564;53.326;10.356;2023-08-01T05:45:20;3.17;;;2.80;;
7045;SDS011;3564;53.326;10.356;2023-08-01T05:47:46;4.07;;;3.67;;
7045;SDS011;3564;53.326;10.356;2023-08-01T05:50:11;4.53;;;3.60;;
7045;SDS011;3564;53.326;10.356;2023-08-01T05:52:37;4.37;;;3.97;;
7045;SDS011;3564;53.326;10.356;2023-08-01T05:55:03;5.07;;;3.87;;
7045;SDS011;3564;53.326;10.356;2023-08-01T05:57:32;3.87;;;3.47;;
7045;SDS011;3564;53.326;10.356;2023-08-01T05:59:57;4.53;;;3.53;;
7045;SDS011;3564;53.326;10.356;2023-08-01T06:02:23;5.30;;;4.03;;
7045;SDS011;3564;53.326;10.356;2023-08-01T06:04:48;7.10;;;4.20;;
7045;SDS011;3564;53.326;10.356;2023-08-01T06:07:14;6.53;;;3.83;;
7045;SDS011;3564;53.326;10.356;2023-08-01T06:09:40;6.27;;;3.77;;
7045;SDS011;3564;53.326;10.356;2023-08-01T06:12:05;6.27;;;4.07;;
7045;SDS011;3564;53.326;10.356;2023-08-01T06:14:31;5.63;;;4.40;;
7045;SDS011;3564;53.326;10.356;2023-08-01T06:16:57;6.30;;;4.40;;
7045;SDS011;3564;53.326;10.356;2023-08-01T06:19:22;7.03;;;3.97;;
7045;SDS011;3564;53.326;10.356;2023-08-01T06:21:48;8.40;;;4.13;;
7045;SDS011;3564;53.326;10.356;2023-08-01T06:24:14;4.67;;;3.97;;
7045;SDS011;3564;53.326;10.356;2023-08-01T06:26:39;9.43;;;4.10;;
7045;SDS011;3564;53.326;10.356;2023-08-01T06:29:05;7.63;;;4.20;;
7045;SDS011;3564;53.326;10.356;2023-08-01T06:31:30;5.00;;;4.50;;
7045;SDS011;3564;53.326;10.356;2023-08-01T06:33:56;8.50;;;4.20;;
7045;SDS011;3564;53.326;10.356;2023-08-01T06:36:21;6.53;;;4.63;;
7045;SDS011;3564;53.326;10.356;2023-08-01T06:38:47;5.20;;;4.67;;
7045;SDS011;3564;53.326;10.356;2023-08-01T06:41:13;6.57;;;4.30;;
7045;SDS011;3564;53.326;10.356;2023-08-01T06:43:38;5.23;;;4.40;;
7045;SDS011;3564;53.326;10.356;2023-08-01T06:46:07;6.47;;;5.20;;
7045;SDS011;3564;53.326;10.356;2023-08-01T06:48:32;6.17;;;4.60;;
7045;SDS011;3564;53.326;10.356;2023-08-01T06:51:01;5.67;;;4.50;;
7045;SDS011;3564;53.326;10.356;2023-08-01T06:53:30;6.00;;;4.80;;
7045;SDS011;3564;53.326;10.356;2023-08-01T06:55:55;6.40;;;5.10;;
7045;SDS011;3564;53.326;10.356;2023-08-01T06:58:24;5.93;;;5.03;;
7045;SDS011;3564;53.326;10.356;2023-08-01T07:00:53;7.90;;;4.77;;
7045;SDS011;3564;53.326;10.356;2023-08-01T07:03:18;7.30;;;4.83;;
7045;SDS011;3564;53.326;10.356;2023-08-01T07:05:44;8.40;;;5.60;;
7045;SDS011;3564;53.326;10.356;2023-08-01T07:08:18;11.43;;;5.63;;
7045;SDS011;3564;53.326;10.356;2023-08-01T07:10:43;6.53;;;5.07;;
7045;SDS011;3564;53.326;10.356;2023-08-01T07:13:12;7.03;;;5.13;;
7045;SDS011;3564;53.326;10.356;2023-08-01T07:15:40;7.83;;;5.40;;
7045;SDS011;3564;53.326;10.356;2023-08-01T07:18:06;7.47;;;5.30;;
7045;SDS011;3564;53.326;10.356;2023-08-01T07:20:31;8.23;;;4.40;;
7045;SDS011;3564;53.326;10.356;2023-08-01T07:23:00;7.23;;;3.90;;
7045;SDS011;3564;53.326;10.356;2023-08-01T07:25:25;5.03;;;3.40;;
7045;SDS011;3564;53.326;10.356;2023-08-01T07:27:51;4.23;;;3.40;;
7045;SDS011;3564;53.326;10.356;2023-08-01T07:30:17;4.33;;;3.47;;
7045;SDS011;3564;53.326;10.356;2023-08-01T07:32:42;3.77;;;2.83;;
7045;SDS011;3564;53.326;10.356;2023-08-01T07:35:08;4.37;;;3.00;;
7045;SDS011;3564;53.326;10.356;2023-08-01T07:37:34;6.00;;;2.67;;
7045;SDS011;3564;53.326;10.356;2023-08-01T07:40:02;5.97;;;3.20;;
7045;SDS011;3564;53.326;10.356;2023-08-01T07:42:32;3.63;;;2.90;;
7045;SDS011;3564;53.326;10.356;2023-08-01T07:45:01;4.57;;;3.17;;
7045;SDS011;3564;53.326;10.356;2023-08-01T07:47:27;3.80;;;2.60;;
7045;SDS011;3564;53.326;10.356;2023-08-01T07:49:52;7.57;;;3.40;;
7045;SDS011;3564;53.326;10.356;2023-08-01T07:52:18;3.67;;;2.90;;
7045;SDS011;3564;53.326;10.356;2023-08-01T07:54:44;4.57;;;3.00;;
7045;SDS011;3564;53.326;10.356;2023-08-01T07:57:09;6.90;;;3.00;;
7045;SDS011;3564;53.326;10.356;2023-08-01T07:59:36;4.03;;;2.87;;
7045;SDS011;3564;53.326;10.356;2023-08-01T08:02:01;3.90;;;3.10;;
7045;SDS011;3564;53.326;10.356;2023-08-01T08:04:27;4.70;;;2.80;;
7045;SDS011;3564;53.326;10.356;2023-08-01T08:06:53;4.03;;;2.80;;
7045;SDS011;3564;53.326;10.356;2023-08-01T08:09:20;6.03;;;2.80;;
7045;SDS011;3564;53.326;10.356;2023-08-01T08:11:50;3.50;;;3.00;;
7045;SDS011;3564;53.326;10.356;2023-08-01T08:14:19;6.83;;;3.10;;
7045;SDS011;3564;53.326;10.356;2023-08-01T08:16:48;4.07;;;3.17;;
7045;SDS011;3564;53.326;10.356;2023-08-01T08:19:14;7.53;;;3.20;;
7045;SDS011;3564;53.326;10.356;2023-08-01T08:21:39;3.90;;;3.13;;
7045;SDS011;3564;53.326;10.356;2023-08-01T08:24:05;4.77;;;2.90;;
7045;SDS011;3564;53.326;10.356;2023-08-01T08:26:31;4.23;;;3.00;;
7045;SDS011;3564;53.326;10.356;2023-08-01T08:28:59;5.33;;;3.40;;
7045;SDS011;3564;53.326;10.356;2023-08-01T08:31:24;6.67;;;3.20;;
7045;SDS011;3564;53.326;10.356;2023-08-01T08:33:50;5.67;;;3.30;;
7045;SDS011;3564;53.326;10.356;2023-08-01T08:36:18;5.47;;;3.70;;
7045;SDS011;3564;53.326;10.356;2023-08-01T08:38:44;6.37;;;3.20;;
7045;SDS011;3564;53.326;10.356;2023-08-01T08:41:23;6.60;;;3.97;;
7045;SDS011;3564;53.326;10.356;2023-08-01T08:43:53;7.83;;;3.47;;
7045;SDS011;3564;53.326;10.356;2023-08-01T08:46:21;4.67;;;3.40;;
7045;SDS011;3564;53.326;10.356;2023-08-01T08:48:52;6.60;;;3.60;;
7045;SDS011;3564;53.326;10.356;2023-08-01T08:51:19;9.43;;;4.27;;
7045;SDS011;3564;53.326;10.356;2023-08-01T08:53:46;6.03;;;3.53;;
7045;SDS011;3564;53.326;10.356;2023-08-01T08:56:12;7.40;;;3.70;;
7045;SDS011;3564;53.326;10.356;2023-08-01T08:58:39;6.73;;;3.80;;
7045;SDS011;3564;53.326;10.356;2023-08-01T09:01:06;5.30;;;3.67;;
7045;SDS011;3564;53.326;10.356;2023-08-01T09:03:36;5.67;;;3.67;;
7045;SDS011;3564;53.326;10.356;2023-08-01T09:08:36;6.77;;;3.37;;
7045;SDS011;3564;53.326;10.356;2023-08-01T09:11:04;6.80;;;3.50;;
7045;SDS011;3564;53.326;10.356;2023-08-01T09:13:30;6.30;;;3.17;;
7045;SDS011;3564;53.326;10.356;2023-08-01T09:15:56;7.33;;;3.27;;
7045;SDS011;3564;53.326;10.356;2023-08-01T09:18:22;4.70;;;3.23;;
7045;SDS011;3564;53.326;10.356;2023-08-01T09:20:48;5.00;;;3.07;;
7045;SDS011;3564;53.326;10.356;2023-08-01T09:23:14;4.57;;;2.83;;
7045;SDS011;3564;53.326;10.356;2023-08-01T09:25:41;5.47;;;3.10;;
7045;SDS011;3564;53.326;10.356;2023-08-01T09:28:17;4.17;;;2.90;;
7045;SDS011;3564;53.326;10.356;2023-08-01T09:30:47;3.77;;;2.43;;
7045;SDS011;3564;53.326;10.356;2023-08-01T09:33:22;4.53;;;2.70;;
7045;SDS011;3564;53.326;10.356;2023-08-01T09:35:51;5.70;;;2.60;;
7045;SDS011;3564;53.326;10.356;2023-08-01T09:38:17;3.47;;;2.50;;
7045;SDS011;3564;53.326;10.356;2023-08-01T09:40:44;3.87;;;2.30;;
7045;SDS011;3564;53.326;10.356;2023-08-01T09:43:11;4.23;;;2.80;;
7045;SDS011;3564;53.326;10.356;2023-08-01T09:45:37;2.67;;;2.07;;
7045;SDS011;3564;53.326;10.356;2023-08-01T09:48:20;2.83;;;2.10;;
7045;SDS011;3564;53.326;10.356;2023-08-01T09:50:50;2.77;;;2.00;;
7045;SDS011;3564;53.326;10.356;2023-08-01T09:53:16;4.80;;;2.03;;
7045;SDS011;3564;53.326;10.356;2023-08-01T09:55:41;2.67;;;2.00;;
7045;SDS011;3564;53.326;10.356;2023-08-01T09:58:10;4.33;;;1.90;;
7045;SDS011;3564;53.326;10.356;2023-08-01T10:00:38;2.00;;;1.80;;
7045;SDS011;3564;53.326;10.356;2023-08-01T10:03:08;1.80;;;1.60;;
7045;SDS011;3564;53.326;10.356;2023-08-01T10:05:34;3.53;;;1.90;;
7045;SDS011;3564;53.326;10.356;2023-08-01T10:08:02;2.87;;;1.73;;
7045;SDS011;3564;53.326;10.356;2023-08-01T10:10:29;11.37;;;2.30;;
7045;SDS011;3564;53.326;10.356;2023-08-01T10:12:56;4.20;;;1.73;;
7045;SDS011;3564;53.326;10.356;2023-08-01T10:15:23;3.70;;;1.80;;
7045;SDS011;3564;53.326;10.356;2023-08-01T10:17:50;2.00;;;1.77;;
7045;SDS011;3564;53.326;10.356;2023-08-01T10:20:16;3.57;;;1.90;;
7045;SDS011;3564;53.326;10.356;2023-08-01T10:22:43;1.67;;;1.53;;
7045;SDS011;3564;53.326;10.356;2023-08-01T10:25:09;4.40;;;2.20;;
7045;SDS011;3564;53.326;10.356;2023-08-01T10:27:35;4.70;;;1.73;;
7045;SDS011;3564;53.326;10.356;2023-08-01T10:30:02;1.93;;;1.67;;
7045;SDS011;3564;53.326;10.356;2023-08-01T10:32:31;3.53;;;1.73;;
7045;SDS011;3564;53.326;10.356;2023-08-01T10:35:01;2.40;;;1.60;;
7045;SDS011;3564;53.326;10.356;2023-08-01T10:37:38;2.87;;;2.13;;
7045;SDS011;3564;53.326;10.356;2023-08-01T10:40:07;3.43;;;2.07;;
7045;SDS011;3564;53.326;10.356;2023-08-01T10:42:37;1.53;;;1.43;;
7045;SDS011;3564;53.326;10.356;2023-08-01T10:45:07;2.90;;;1.57;;
7045;SDS011;3564;53.326;10.356;2023-08-01T10:47:44;1.93;;;1.70;;
7045;SDS011;3564;53.326;10.356;2023-08-01T10:50:15;3.10;;;1.50;;
7045;SDS011;3564;53.326;10.356;2023-08-01T10:52:42;2.37;;;1.67;;
7045;SDS011;3564;53.326;10.356;2023-08-01T10:55:08;1.70;;;1.50;;
7045;SDS011;3564;53.326;10.356;2023-08-01T10:57:34;2.00;;;1.50;;
7045;SDS011;3564;53.326;10.356;2023-08-01T11:00:02;2.60;;;2.00;;
7045;SDS011;3564;53.326;10.356;2023-08-01T11:02:34;2.33;;;1.87;;
7045;SDS011;3564;53.326;10.356;2023-08-01T11:05:06;2.53;;;1.70;;
7045;SDS011;3564;53.326;10.356;2023-08-01T11:07:33;1.70;;;1.50;;
7045;SDS011;3564;53.326;10.356;2023-08-01T11:12:30;2.57;;;1.57;;
7045;SDS011;3564;53.326;10.356;2023-08-01T11:15:00;2.53;;;1.60;;
7045;SDS011;3564;53.326;10.356;2023-08-01T11:17:26;2.77;;;2.00;;
7045;SDS011;3564;53.326;10.356;2023-08-01T11:19:59;2.87;;;1.50;;
7045;SDS011;3564;53.326;10.356;2023-08-01T11:22:26;3.57;;;1.37;;
7045;SDS011;3564;53.326;10.356;2023-08-01T11:24:51;1.83;;;1.60;;
7045;SDS011;3564;53.326;10.356;2023-08-01T11:27:17;7.93;;;1.67;;
7045;SDS011;3564;53.326;10.356;2023-08-01T11:29:43;1.40;;;1.30;;
7045;SDS011;3564;53.326;10.356;2023-08-01T11:32:09;2.27;;;1.50;;
7045;SDS011;3564;53.326;10.356;2023-08-01T11:34:40;1.80;;;1.37;;
7045;SDS011;3564;53.326;10.356;2023-08-01T11:37:11;1.70;;;1.50;;
7045;SDS011;3564;53.326;10.356;2023-08-01T11:39:43;2.77;;;1.53;;
7045;SDS011;3564;53.326;10.356;2023-08-01T11:42:16;2.37;;;1.80;;
7045;SDS011;3564;53.326;10.356;2023-08-01T11:44:42;1.97;;;1.50;;
7045;SDS011;3564;53.326;10.356;2023-08-01T11:47:15;3.37;;;1.47;;
7045;SDS011;3564;53.326;10.356;2023-08-01T11:49:48;1.90;;;1.47;;
7045;SDS011;3564;53.326;10.356;2023-08-01T11:52:27;1.83;;;1.37;;
7045;SDS011;3564;53.326;10.356;2023-08-01T11:54:56;4.23;;;1.47;;
7045;SDS011;3564;53.326;10.356;2023-08-01T11:57:22;3.40;;;1.37;;
7045;SDS011;3564;53.326;10.356;2023-08-01T11:59:51;2.97;;;1.10;;
7045;SDS011;3564;53.326;10.356;2023-08-01T12:02:26;2.67;;;1.10;;
7045;SDS011;3564;53.326;10.356;2023-08-01T12:04:53;2.83;;;1.23;;
7045;SDS011;3564;53.326;10.356;2023-08-01T12:07:19;4.00;;;1.60;;
7045;SDS011;3564;53.326;10.356;2023-08-01T12:09:57;2.10;;;1.30;;
7045;SDS011;3564;53.326;10.356;2023-08-01T12:12:26;2.00;;;1.17;;
7045;SDS011;3564;53.326;10.356;2023-08-01T12:14:58;1.27;;;1.13;;
7045;SDS011;3564;53.326;10.356;2023-08-01T12:17:24;1.43;;;1.20;;
7045;SDS011;3564;53.326;10.356;2023-08-01T12:19:50;1.63;;;1.30;;
7045;SDS011;3564;53.326;10.356;2023-08-01T12:22:19;3.63;;;1.40;;
7045;SDS011;3564;53.326;10.356;2023-08-01T12:24:44;2.30;;;1.20;;
7045;SDS011;3564;53.326;10.356;2023-08-01T12:27:10;4.43;;;1.10;;
7045;SDS011;3564;53.326;10.356;2023-08-01T12:29:36;1.50;;;1.40;;
7045;SDS011;3564;53.326;10.356;2023-08-01T12:32:02;2.40;;;1.30;;
7045;SDS011;3564;53.326;10.356;2023-08-01T12:34:28;1.80;;;1.30;;
7045;SDS011;3564;53.326;10.356;2023-08-01T12:36:57;3.43;;;1.30;;
7045;SDS011;3564;53.326;10.356;2023-08-01T12:39:23;2.30;;;1.33;;
7045;SDS011;3564;53.326;10.356;2023-08-01T12:41:50;5.43;;;1.70;;
7045;SDS011;3564;53.326;10.356;2023-08-01T12:44:18;2.73;;;1.47;;
7045;SDS011;3564;53.326;10.356;2023-08-01T12:46:43;2.03;;;1.30;;
7045;SDS011;3564;53.326;10.356;2023-08-01T12:49:09;2.83;;;1.30;;
7045;SDS011;3564;53.326;10.356;2023-08-01T12:51:34;2.80;;;1.27;;
7045;SDS011;3564;53.326;10.356;2023-08-01T12:54:03;2.00;;;1.50;;
7045;SDS011;3564;53.326;10.356;2023-08-01T12:56:32;3.33;;;1.60;;
7045;SDS011;3564;53.326;10.356;2023-08-01T12:58:57;3.37;;;1.57;;
7045;SDS011;3564;53.326;10.356;2023-08-01T13:01:23;2.87;;;1.70;;
7045;SDS011;3564;53.326;10.356;2023-08-01T13:03:52;2.40;;;1.77;;
7045;SDS011;3564;53.326;10.356;2023-08-01T13:06:17;3.20;;;1.70;;
7045;SDS011;3564;53.326;10.356;2023-08-01T13:08:43;1.87;;;1.50;;
7045;SDS011;3564;53.326;10.356;2023-08-01T13:11:12;2.43;;;1.63;;
7045;SDS011;3564;53.326;10.356;2023-08-01T13:13:41;2.77;;;1.90;;
7045;SDS011;3564;53.326;10.356;2023-08-01T13:16:07;3.03;;;1.70;;
7045;SDS011;3564;53.326;10.356;2023-08-01T13:18:36;2.07;;;1.87;;
7045;SDS011;3564;53.326;10.356;2023-08-01T13:21:08;1.83;;;1.60;;
7045;SDS011;3564;53.326;10.356;2023-08-01T13:23:33;3.10;;;1.50;;
7045;SDS011;3564;53.326;10.356;2023-08-01T13:25:59;2.03;;;1.50;;
7045;SDS011;3564;53.326;10.356;2023-08-01T13:28:30;2.23;;;1.80;;
7045;SDS011;3564;53.326;10.356;2023-08-01T13:30:55;1.93;;;1.60;;
7045;SDS011;3564;53.326;10.356;2023-08-01T13:33:21;1.83;;;1.40;;
7045;SDS011;3564;53.326;10.356;2023-08-01T13:35:46;3.07;;;1.60;;
7045;SDS011;3564;53.326;10.356;2023-08-01T13:38:16;5.23;;;1.83;;
7045;SDS011;3564;53.326;10.356;2023-08-01T13:40:42;2.80;;;1.33;;
7045;SDS011;3564;53.326;10.356;2023-08-01T13:43:08;1.80;;;1.60;;
7045;SDS011;3564;53.326;10.356;2023-08-01T13:45:33;1.70;;;1.60;;
7045;SDS011;3564;53.326;10.356;2023-08-01T13:47:59;2.50;;;1.47;;
7045;SDS011;3564;53.326;10.356;2023-08-01T13:50:25;3.27;;;1.63;;
7045;SDS011;3564;53.326;10.356;2023-08-01T13:52:53;2.07;;;1.77;;
7045;SDS011;3564;53.326;10.356;2023-08-01T13:55:19;3.13;;;1.60;;
7045;SDS011;3564;53.326;10.356;2023-08-01T13:57:44;2.83;;;1.43;;
7045;SDS011;3564;53.326;10.356;2023-08-01T14:00:10;1.97;;;1.50;;
7045;SDS011;3564;53.326;10.356;2023-08-01T14:02:36;1.60;;;1.50;;
7045;SDS011;3564;53.326;10.356;2023-08-01T14:05:04;2.23;;;1.50;;
7045;SDS011;3564;53.326;10.356;2023-08-01T14:07:30;1.40;;;1.23;;
7045;SDS011;3564;53.326;10.356;2023-08-01T14:09:56;1.90;;;1.47;;
7045;SDS011;3564;53.326;10.356;2023-08-01T14:12:22;2.23;;;1.37;;
7045;SDS011;3564;53.326;10.356;2023-08-01T14:14:49;2.07;;;1.60;;
7045;SDS011;3564;53.326;10.356;2023-08-01T14:17:15;1.83;;;1.40;;
7045;SDS011;3564;53.326;10.356;2023-08-01T14:19:41;1.80;;;1.30;;
7045;SDS011;3564;53.326;10.356;2023-08-01T14:22:06;2.37;;;1.50;;
7045;SDS011;3564;53.326;10.356;2023-08-01T14:24:32;1.97;;;1.10;;
7045;SDS011;3564;53.326;10.356;2023-08-01T14:26:58;1.40;;;1.30;;
7045;SDS011;3564;53.326;10.356;2023-08-01T14:29:23;1.10;;;1.10;;
7045;SDS011;3564;53.326;10.356;2023-08-01T14:31:50;1.10;;;1.03;;
7045;SDS011;3564;53.326;10.356;2023-08-01T14:34:16;1.60;;;1.00;;
7045;SDS011;3564;53.326;10.356;2023-08-01T14:36:42;2.40;;;1.10;;
7045;SDS011;3564;53.326;10.356;2023-08-01T14:39:07;1.20;;;1.10;;
7045;SDS011;3564;53.326;10.356;2023-08-01T14:41:33;1.40;;;1.27;;
7045;SDS011;3564;53.326;10.356;2023-08-01T14:43:58;0.97;;;0.90;;
7045;SDS011;3564;53.326;10.356;2023-08-01T14:46:24;1.40;;;1.10;;
7045;SDS011;3564;53.326;10.356;2023-08-01T14:48:50;2.10;;;1.20;;
7045;SDS011;3564;53.326;10.356;2023-08-01T14:51:18;1.80;;;1.23;;
7045;SDS011;3564;53.326;10.356;2023-08-01T14:53:43;1.20;;;1.10;;
7045;SDS011;3564;53.326;10.356;2023-08-01T14:56:12;1.63;;;1.50;;
7045;SDS011;3564;53.326;10.356;2023-08-01T14:58:38;1.63;;;1.37;;
7045;SDS011;3564;53.326;10.356;2023-08-01T15:01:12;2.50;;;1.27;;
7045;SDS011;3564;53.326;10.356;2023-08-01T15:03:41;3.03;;;1.30;;